createdAt,value
2022-10-05T00:00:24.492Z,11.60
2022-10-05T00:02:54.053Z,11.70
2022-10-05T00:05:31.831Z,11.70
2022-10-05T00:08:19.560Z,11.60
2022-10-05T00:10:47.196Z,11.70
2022-10-05T00:13:20.668Z,11.70
2022-10-05T00:15:49.491Z,11.70
2022-10-05T00:18:19.510Z,11.70
2022-10-05T00:20:48.150Z,11.70
2022-10-05T00:23:21.734Z,11.70
2022-10-05T00:25:49.445Z,11.80
2022-10-05T00:28:30.174Z,11.80
2022-10-05T00:30:59.166Z,11.80
2022-10-05T00:33:27.927Z,11.80
2022-10-05T00:35:55.920Z,11.80
2022-10-05T00:38:23.933Z,11.70
2022-10-05T00:41:24.843Z,11.70
2022-10-05T00:44:04.278Z,11.80
2022-10-05T00:46:52.860Z,11.80
2022-10-05T00:49:49.696Z,11.90
2022-10-05T00:52:22.029Z,11.80
2022-10-05T00:55:03.653Z,11.80
2022-10-05T00:57:41.372Z,11.80
2022-10-05T01:00:17.174Z,11.80
2022-10-05T01:02:47.710Z,11.80
2022-10-05T01:05:18.314Z,11.80
2022-10-05T01:08:00.973Z,11.60
2022-10-05T01:11:01.457Z,11.50
2022-10-05T01:13:43.377Z,11.50
2022-10-05T01:16:20.956Z,11.60
2022-10-05T01:19:26.641Z,11.50
2022-10-05T01:22:03.794Z,11.50
2022-10-05T01:24:42.474Z,11.50
2022-10-05T01:27:19.436Z,11.50
2022-10-05T01:29:46.891Z,11.40
2022-10-05T01:32:23.913Z,11.40
2022-10-05T01:35:03.691Z,11.40
2022-10-05T01:37:36.529Z,11.40
2022-10-05T01:40:12.850Z,11.40
2022-10-05T01:43:04.819Z,11.50
2022-10-05T01:45:43.670Z,11.50
2022-10-05T01:48:52.162Z,11.50
2022-10-05T01:51:47.368Z,11.50
2022-10-05T01:54:20.867Z,11.50
2022-10-05T01:57:13.837Z,11.50
2022-10-05T01:59:44.249Z,11.50
2022-10-05T02:02:17.121Z,11.50
2022-10-05T02:05:01.779Z,11.50
2022-10-05T02:07:47.741Z,11.50
2022-10-05T02:10:22.449Z,11.50
2022-10-05T02:12:54.745Z,11.50
2022-10-05T02:15:45.765Z,11.50
2022-10-05T02:18:28.972Z,11.50
2022-10-05T02:20:58.727Z,11.50
2022-10-05T02:23:33.553Z,11.60
2022-10-05T02:26:01.742Z,11.60
2022-10-05T02:28:52.621Z,11.60
2022-10-05T02:31:40.530Z,11.60
2022-10-05T02:34:40.177Z,11.70
2022-10-05T02:37:44.460Z,11.70
2022-10-05T02:40:33.919Z,11.70
2022-10-05T02:43:23.862Z,11.70
2022-10-05T02:45:57.693Z,11.80
2022-10-05T02:48:50.780Z,11.80
2022-10-05T02:51:28.350Z,11.90
2022-10-05T02:54:14.326Z,11.90
2022-10-05T02:56:48.153Z,12.10
2022-10-05T02:59:32.217Z,12.10
2022-10-05T03:02:26.728Z,12.20
2022-10-05T03:05:25.444Z,12.30
2022-10-05T03:08:33.066Z,12.50
2022-10-05T03:11:11.286Z,12.60
2022-10-05T03:14:03.449Z,12.70
2022-10-05T03:16:55.414Z,12.80
2022-10-05T03:19:38.094Z,12.80
2022-10-05T03:22:17.704Z,12.90
2022-10-05T03:24:59.224Z,12.90
2022-10-05T03:27:26.759Z,12.90
2022-10-05T03:29:58.432Z,13.00
2022-10-05T03:32:45.564Z,13.00
2022-10-05T03:35:23.743Z,13.00
2022-10-05T03:38:13.333Z,13.00
2022-10-05T03:40:46.938Z,13.00
2022-10-05T03:43:36.100Z,13.00
2022-10-05T03:46:21.038Z,13.00
2022-10-05T03:48:59.086Z,13.00
2022-10-05T03:51:42.802Z,13.00
2022-10-05T03:54:28.690Z,13.00
2022-10-05T03:57:00.724Z,13.00
2022-10-05T04:00:03.132Z,12.90
2022-10-05T04:02:46.637Z,12.90
2022-10-05T04:05:21.827Z,12.90
2022-10-05T04:08:02.888Z,12.80
2022-10-05T04:10:44.085Z,12.80
2022-10-05T04:13:15.004Z,12.70
2022-10-05T04:15:51.586Z,12.60
2022-10-05T04:18:19.250Z,12.60
2022-10-05T04:20:53.351Z,12.60
2022-10-05T04:23:33.616Z,12.60
2022-10-05T04:26:10.980Z,12.50
2022-10-05T04:29:14.239Z,12.50
2022-10-05T04:32:20.526Z,12.40
2022-10-05T04:34:59.548Z,12.40
2022-10-05T04:37:46.634Z,12.40
2022-10-05T04:40:39.596Z,12.40
2022-10-05T04:43:14.042Z,12.40
2022-10-05T04:45:48.448Z,12.30
2022-10-05T04:48:22.253Z,12.30
2022-10-05T04:51:17.068Z,12.30
2022-10-05T04:54:12.228Z,12.30
2022-10-05T04:56:49.724Z,12.30
2022-10-05T04:59:20.266Z,12.10
2022-10-05T05:01:47.896Z,12.00
2022-10-05T05:04:35.569Z,11.70
2022-10-05T05:07:43.548Z,11.70
2022-10-05T05:10:35.651Z,11.60
2022-10-05T05:13:09.728Z,11.60
2022-10-05T05:15:42.083Z,11.60
2022-10-05T05:18:46.020Z,11.60
2022-10-05T05:21:36.361Z,11.60
2022-10-05T05:24:30.234Z,11.40
2022-10-05T05:27:09.721Z,11.30
2022-10-05T05:29:49.626Z,11.30
2022-10-05T05:32:30.042Z,11.10
2022-10-05T05:35:07.115Z,11.00
2022-10-05T05:38:04.527Z,10.90
2022-10-05T05:41:02.383Z,10.90
2022-10-05T05:43:54.898Z,10.80
2022-10-05T05:47:01.580Z,10.70
2022-10-05T05:49:40.179Z,10.50
2022-10-05T05:52:20.288Z,10.50
2022-10-05T05:54:53.730Z,10.40
2022-10-05T05:57:30.555Z,10.40
2022-10-05T06:00:06.955Z,10.30
2022-10-05T06:03:04.218Z,10.30
2022-10-05T06:05:40.702Z,10.40
2022-10-05T06:08:49.834Z,10.40
2022-10-05T06:12:12.085Z,10.20
2022-10-05T06:14:52.876Z,10.00
2022-10-05T06:17:41.349Z,10.00
2022-10-05T06:20:22.369Z,10.00
2022-10-05T06:22:51.417Z,10.00
2022-10-05T06:25:44.939Z,9.80
2022-10-05T06:28:15.027Z,9.80
2022-10-05T06:31:15.326Z,9.90
2022-10-05T06:33:54.489Z,9.80
2022-10-05T06:36:45.802Z,9.80
2022-10-05T06:39:51.021Z,9.70
2022-10-05T06:42:54.411Z,9.70
2022-10-05T06:45:53.038Z,9.60
2022-10-05T06:48:46.630Z,9.70
2022-10-05T06:52:12.812Z,9.70
2022-10-05T06:55:02.702Z,9.80
2022-10-05T06:57:36.660Z,9.80
2022-10-05T07:00:20.722Z,9.70
2022-10-05T07:02:56.205Z,9.80
2022-10-05T07:05:47.922Z,9.80
2022-10-05T07:08:49.668Z,9.80
2022-10-05T07:11:20.031Z,9.90
2022-10-05T07:14:06.839Z,9.90
2022-10-05T07:16:58.974Z,9.90
2022-10-05T07:19:36.655Z,9.80
2022-10-05T07:22:34.264Z,10.00
2022-10-05T07:25:28.859Z,9.90
2022-10-05T07:28:26.388Z,9.80
2022-10-05T07:31:14.078Z,9.80
2022-10-05T07:34:06.977Z,9.80
2022-10-05T07:37:22.399Z,9.80
2022-10-05T07:40:09.605Z,9.90
2022-10-05T07:42:57.010Z,9.80
2022-10-05T07:45:56.767Z,9.90
2022-10-05T07:48:38.251Z,10.00
2022-10-05T07:51:26.032Z,10.00
2022-10-05T07:54:15.846Z,10.00
2022-10-05T07:56:49.297Z,9.90
2022-10-05T07:59:29.601Z,9.80
2022-10-05T08:02:13.837Z,9.90
2022-10-05T08:04:52.259Z,9.90
2022-10-05T08:09:58.488Z,9.90
2022-10-05T08:12:25.940Z,9.90
2022-10-05T08:15:15.679Z,9.90
2022-10-05T08:17:55.911Z,9.90
2022-10-05T08:20:40.242Z,9.80
2022-10-05T08:23:25.779Z,9.80
2022-10-05T08:26:05.259Z,9.80
2022-10-05T08:28:57.229Z,9.80
2022-10-05T08:31:32.800Z,9.80
2022-10-05T08:34:20.253Z,9.80
2022-10-05T08:37:12.758Z,9.90
2022-10-05T08:40:11.775Z,9.90
2022-10-05T08:42:57.890Z,9.90
2022-10-05T08:45:52.931Z,9.90
2022-10-05T08:48:56.287Z,9.90
2022-10-05T08:51:57.017Z,10.00
2022-10-05T08:55:01.058Z,10.00
2022-10-05T08:58:13.528Z,10.00
2022-10-05T09:01:25.186Z,10.00
2022-10-05T09:04:13.614Z,10.00
2022-10-05T09:07:18.278Z,9.90
2022-10-05T09:10:23.058Z,9.90
2022-10-05T09:12:59.194Z,9.90
2022-10-05T09:15:57.548Z,10.00
2022-10-05T09:18:33.685Z,10.00
2022-10-05T09:21:20.946Z,10.00
2022-10-05T09:24:06.050Z,10.10
2022-10-05T09:26:53.061Z,10.10
2022-10-05T09:29:58.947Z,10.00
2022-10-05T09:33:07.401Z,10.10
2022-10-05T09:35:53.584Z,10.10
2022-10-05T09:38:51.575Z,10.10
2022-10-05T09:41:27.931Z,10.00
2022-10-05T09:44:30.308Z,10.00
2022-10-05T09:47:34.536Z,10.00
2022-10-05T09:50:42.624Z,10.10
2022-10-05T09:53:32.936Z,10.00
2022-10-05T09:56:34.579Z,10.00
2022-10-05T09:59:37.964Z,10.20
2022-10-05T10:02:18.773Z,10.30
2022-10-05T10:05:20.159Z,10.30
2022-10-05T10:08:25.351Z,10.30
2022-10-05T10:10:55.825Z,10.20
2022-10-05T10:13:29.480Z,10.30
2022-10-05T10:16:18.680Z,10.30
2022-10-05T10:18:46.103Z,10.30
2022-10-05T10:21:58.597Z,10.30
2022-10-05T10:24:47.368Z,10.40
2022-10-05T10:27:23.725Z,10.50
2022-10-05T10:29:59.500Z,10.60
2022-10-05T10:32:47.888Z,10.60
2022-10-05T10:35:33.950Z,10.60
2022-10-05T10:38:07.438Z,10.60
2022-10-05T10:40:59.798Z,10.70
2022-10-05T10:43:41.110Z,10.80
2022-10-05T10:46:20.556Z,10.70
2022-10-05T10:49:15.746Z,10.80
2022-10-05T10:52:19.585Z,10.80
2022-10-05T10:55:04.579Z,10.70
2022-10-05T10:57:57.067Z,10.80
2022-10-05T11:00:24.698Z,10.80
2022-10-05T11:03:10.319Z,10.80
2022-10-05T11:06:09.645Z,10.80
2022-10-05T11:08:46.516Z,10.90
2022-10-05T11:11:32.704Z,10.80
2022-10-05T11:14:35.894Z,10.80
2022-10-05T11:17:35.064Z,10.80
2022-10-05T11:20:23.599Z,10.90
2022-10-05T11:23:19.861Z,11.00
2022-10-05T11:26:29.786Z,11.00
2022-10-05T11:29:34.447Z,11.10
2022-10-05T11:32:13.852Z,11.10
2022-10-05T11:34:53.175Z,11.20
2022-10-05T11:37:26.770Z,11.30
2022-10-05T11:40:11.383Z,11.30
2022-10-05T11:43:15.457Z,11.30
2022-10-05T11:45:58.898Z,11.30
2022-10-05T11:48:41.541Z,11.30
2022-10-05T11:51:14.941Z,11.30
2022-10-05T11:54:06.516Z,11.40
2022-10-05T11:56:41.966Z,11.40
2022-10-05T11:59:21.840Z,11.40
2022-10-05T12:02:18.070Z,11.30
2022-10-05T12:05:10.833Z,11.40
2022-10-05T12:07:47.178Z,11.40
2022-10-05T12:10:32.729Z,11.40
2022-10-05T12:13:03.179Z,11.50
2022-10-05T12:15:33.548Z,11.40
2022-10-05T12:18:41.235Z,11.40
2022-10-05T12:21:18.508Z,11.50
2022-10-05T12:23:58.946Z,11.50
2022-10-05T12:26:40.689Z,11.40
2022-10-05T12:29:26.728Z,11.50
2022-10-05T12:32:12.735Z,11.60
2022-10-05T12:34:45.978Z,11.60
2022-10-05T12:37:39.202Z,11.70
2022-10-05T12:40:39.971Z,11.80
2022-10-05T12:43:39.813Z,11.80
2022-10-05T12:46:22.175Z,11.80
2022-10-05T12:49:14.003Z,11.90
2022-10-05T12:51:58.412Z,12.00
2022-10-05T12:54:39.401Z,12.00
2022-10-05T12:57:44.248Z,12.10
2022-10-05T13:00:22.738Z,12.10
2022-10-05T13:03:05.142Z,12.10
2022-10-05T13:06:00.258Z,12.00
2022-10-05T13:08:50.846Z,12.10
2022-10-05T13:11:29.448Z,12.10
2022-10-05T13:14:16.529Z,12.10
2022-10-05T13:17:14.507Z,12.10
2022-10-05T13:19:46.743Z,12.10
2022-10-05T13:22:16.987Z,12.20
2022-10-05T13:24:52.487Z,12.20
2022-10-05T13:27:40.837Z,12.10
2022-10-05T13:30:20.140Z,12.10
2022-10-05T13:32:59.963Z,12.20
2022-10-05T13:35:46.295Z,12.20
2022-10-05T13:38:42.055Z,12.10
2022-10-05T13:41:32.072Z,12.10
2022-10-05T13:44:24.633Z,12.10
2022-10-05T13:46:58.312Z,12.20
2022-10-05T13:49:38.984Z,12.30
2022-10-05T13:52:07.964Z,12.30
2022-10-05T13:54:47.737Z,12.30
2022-10-05T13:57:36.244Z,12.30
2022-10-05T14:00:15.361Z,12.30
2022-10-05T14:02:47.316Z,12.40
2022-10-05T14:05:14.918Z,12.40
2022-10-05T14:08:05.136Z,12.40
2022-10-05T14:10:35.467Z,12.30
2022-10-05T14:13:33.812Z,12.40
2022-10-05T14:16:13.517Z,12.40
2022-10-05T14:19:09.163Z,12.40
2022-10-05T14:22:03.755Z,12.40
2022-10-05T14:24:50.835Z,12.50
2022-10-05T14:27:36.503Z,12.50
2022-10-05T14:30:12.618Z,12.60
2022-10-05T14:32:56.271Z,12.60
2022-10-05T14:35:26.211Z,12.60
2022-10-05T14:38:02.726Z,12.60
2022-10-05T14:40:33.212Z,12.60
2022-10-05T14:43:15.107Z,12.60
2022-10-05T14:45:56.687Z,12.60
2022-10-05T14:48:29.207Z,12.60
2022-10-05T14:50:59.420Z,12.60
2022-10-05T14:53:44.048Z,12.60
2022-10-05T14:56:30.298Z,12.50
2022-10-05T14:59:15.867Z,12.50
2022-10-05T15:02:12.773Z,12.50
2022-10-05T15:04:44.236Z,12.50
2022-10-05T15:07:29.267Z,12.40
2022-10-05T15:10:36.528Z,12.40
2022-10-05T15:13:18.435Z,12.40
2022-10-05T15:15:45.914Z,12.40
2022-10-05T15:18:30.962Z,12.40
2022-10-05T15:21:06.213Z,12.30
2022-10-05T15:23:48.094Z,12.30
2022-10-05T15:26:30.646Z,12.40
2022-10-05T15:29:36.206Z,12.40
2022-10-05T15:32:21.829Z,12.40
2022-10-05T15:35:24.679Z,12.40
2022-10-05T15:38:26.579Z,12.40
2022-10-05T15:41:30.219Z,12.30
2022-10-05T15:44:26.078Z,12.30
2022-10-05T15:47:03.965Z,12.20
2022-10-05T15:49:37.070Z,12.20
2022-10-05T15:52:25.500Z,12.20
2022-10-05T15:55:25.525Z,12.20
2022-10-05T15:58:01.611Z,12.20
2022-10-05T16:00:33.388Z,12.10
2022-10-05T16:03:13.133Z,12.10
2022-10-05T16:06:38.359Z,12.10
2022-10-05T16:09:44.761Z,12.10
2022-10-05T16:12:38.192Z,12.00
2022-10-05T16:15:38.898Z,12.00
2022-10-05T16:18:29.066Z,11.90
2022-10-05T16:21:20.802Z,11.90
2022-10-05T16:24:06.304Z,11.80
2022-10-05T16:26:55.247Z,11.80
2022-10-05T16:29:25.847Z,11.70
2022-10-05T16:31:59.457Z,11.70
2022-10-05T16:34:45.177Z,11.70
2022-10-05T16:37:34.341Z,11.70
2022-10-05T16:40:32.247Z,11.60
2022-10-05T16:43:27.364Z,11.60
2022-10-05T16:46:10.493Z,11.60
2022-10-05T16:48:56.829Z,11.60
2022-10-05T16:51:30.171Z,11.50
2022-10-05T16:54:21.660Z,11.50
2022-10-05T16:57:02.549Z,11.50
2022-10-05T16:59:35.844Z,11.50
2022-10-05T17:02:27.893Z,11.50
2022-10-05T17:05:21.580Z,11.40
2022-10-05T17:08:10.491Z,11.40
2022-10-05T17:11:02.433Z,11.30
2022-10-05T17:13:47.810Z,11.30
2022-10-05T17:16:33.433Z,11.20
2022-10-05T17:19:19.314Z,11.30
2022-10-05T17:22:00.935Z,11.20
2022-10-05T17:25:06.204Z,11.20
2022-10-05T17:27:53.144Z,11.20
2022-10-05T17:30:20.812Z,11.20
2022-10-05T17:33:04.723Z,11.10
2022-10-05T17:36:12.450Z,11.20
2022-10-05T17:39:12.270Z,11.10
2022-10-05T17:41:39.916Z,11.10
2022-10-05T17:44:10.347Z,11.00
2022-10-05T17:46:47.566Z,11.00
2022-10-05T17:50:16.353Z,11.10
2022-10-05T17:53:03.590Z,11.10
2022-10-05T17:55:34.281Z,11.00
2022-10-05T17:58:24.651Z,11.00
2022-10-05T18:00:58.117Z,11.10
2022-10-05T18:03:37.903Z,11.00
2022-10-05T18:06:37.350Z,11.00
2022-10-05T18:09:36.200Z,10.90
2022-10-05T18:12:11.849Z,10.90
2022-10-05T18:14:57.397Z,10.90
2022-10-05T18:17:57.328Z,10.90
2022-10-05T18:20:26.431Z,10.90
2022-10-05T18:23:09.509Z,10.90
2022-10-05T18:25:39.742Z,10.80
2022-10-05T18:28:26.128Z,10.80
2022-10-05T18:31:18.669Z,10.80
2022-10-05T18:34:05.007Z,10.80
2022-10-05T18:37:23.180Z,10.70
2022-10-05T18:40:09.718Z,10.70
2022-10-05T18:42:51.741Z,10.60
2022-10-05T18:45:24.515Z,10.60
2022-10-05T18:48:05.571Z,10.60
2022-10-05T18:51:06.402Z,10.60
2022-10-05T18:53:45.886Z,10.60
2022-10-05T18:56:45.553Z,10.50
2022-10-05T18:59:42.188Z,10.30
2022-10-05T19:02:34.185Z,10.30
2022-10-05T19:05:47.001Z,10.30
2022-10-05T19:08:30.209Z,10.20
2022-10-05T19:11:15.475Z,10.10
2022-10-05T19:14:05.541Z,10.00
2022-10-05T19:16:35.906Z,9.80
2022-10-05T19:19:33.345Z,9.80
2022-10-05T19:22:35.281Z,9.80
2022-10-05T19:25:18.263Z,9.80
2022-10-05T19:28:04.816Z,9.70
2022-10-05T19:31:01.449Z,9.70
2022-10-05T19:33:29.114Z,9.70
2022-10-05T19:36:17.335Z,9.60
2022-10-05T19:39:08.775Z,9.50
2022-10-05T19:42:10.143Z,9.40
2022-10-05T19:45:16.074Z,9.40
2022-10-05T19:48:21.307Z,9.40
2022-10-05T19:50:57.530Z,9.30
2022-10-05T19:53:37.093Z,9.30
2022-10-05T19:56:26.317Z,9.30
2022-10-05T19:58:56.550Z,9.30
2022-10-05T20:01:34.127Z,9.30
2022-10-05T20:04:01.878Z,9.30
2022-10-05T20:06:29.729Z,9.30
2022-10-05T20:09:00.340Z,9.20
2022-10-05T20:11:29.169Z,9.30
2022-10-05T20:14:02.440Z,9.20
2022-10-05T20:16:50.367Z,9.20
2022-10-05T20:19:51.791Z,9.20
2022-10-05T20:22:32.962Z,9.20
2022-10-05T20:25:20.700Z,9.20
2022-10-05T20:27:51.842Z,9.20
2022-10-05T20:30:25.026Z,9.20
2022-10-05T20:32:57.621Z,9.20
2022-10-05T20:35:28.858Z,9.30
2022-10-05T20:38:00.884Z,9.30
2022-10-05T20:40:30.030Z,9.30
2022-10-05T20:42:58.465Z,9.30
2022-10-05T20:45:26.019Z,9.30
2022-10-05T20:47:53.559Z,9.30
2022-10-05T20:50:22.280Z,9.30
2022-10-05T20:52:49.826Z,9.40
2022-10-05T20:55:17.364Z,9.40
2022-10-05T20:57:46.226Z,9.40
2022-10-05T21:00:14.127Z,9.30
2022-10-05T21:02:41.580Z,9.30
2022-10-05T21:05:09.680Z,9.40
2022-10-05T21:07:37.213Z,9.40
2022-10-05T21:10:05.130Z,9.40
2022-10-05T21:12:34.733Z,9.40
2022-10-05T21:15:04.684Z,9.30
2022-10-05T21:17:34.721Z,9.30
2022-10-05T21:20:02.216Z,9.30
2022-10-05T21:22:29.636Z,9.30
2022-10-05T21:24:57.064Z,9.30
2022-10-05T21:27:25.052Z,9.30
2022-10-05T21:29:52.574Z,9.40
2022-10-05T21:32:20.146Z,9.40
2022-10-05T21:34:47.757Z,9.40
2022-10-05T21:37:15.461Z,9.40
2022-10-05T21:39:43.031Z,9.50
2022-10-05T21:42:10.417Z,9.50
2022-10-05T21:44:37.832Z,9.40
2022-10-05T21:47:06.992Z,9.50
2022-10-05T21:49:35.407Z,9.50
2022-10-05T21:52:05.360Z,9.40
2022-10-05T21:54:33.882Z,9.40
2022-10-05T21:57:01.986Z,9.50
2022-10-05T21:59:32.711Z,9.50
2022-10-05T22:02:00.814Z,9.40
2022-10-05T22:04:28.603Z,9.50
2022-10-05T22:06:56.512Z,9.40
2022-10-05T22:09:24.060Z,9.50
2022-10-05T22:11:51.770Z,9.50
2022-10-05T22:14:19.176Z,9.50
2022-10-05T22:16:46.727Z,9.50
2022-10-05T22:19:17.830Z,9.50
2022-10-05T22:21:45.459Z,9.50
2022-10-05T22:24:12.946Z,9.50
2022-10-05T22:26:43.731Z,9.40
2022-10-05T22:29:11.348Z,9.40
2022-10-05T22:31:39.348Z,9.30
2022-10-05T22:34:07.051Z,9.40
2022-10-05T22:36:35.455Z,9.40
2022-10-05T22:39:03.301Z,9.40
2022-10-05T22:41:30.781Z,9.40
2022-10-05T22:43:58.286Z,9.30
2022-10-05T22:46:25.947Z,9.40
2022-10-05T22:48:53.442Z,9.40
2022-10-05T22:51:20.944Z,9.30
2022-10-05T22:53:48.355Z,9.30
2022-10-05T22:56:16.077Z,9.30
2022-10-05T22:58:44.526Z,9.30
2022-10-05T23:01:15.986Z,9.40
2022-10-05T23:03:44.443Z,9.30
2022-10-05T23:06:14.753Z,9.30
2022-10-05T23:08:42.943Z,9.30
2022-10-05T23:11:15.183Z,9.40
2022-10-05T23:13:43.061Z,9.40
2022-10-05T23:16:13.565Z,9.40
2022-10-05T23:18:41.688Z,9.40
2022-10-05T23:21:10.482Z,9.30
2022-10-05T23:23:42.872Z,9.30
2022-10-05T23:26:11.813Z,9.30
2022-10-05T23:28:40.744Z,9.20
2022-10-05T23:31:08.933Z,9.20
2022-10-05T23:33:36.443Z,9.30
2022-10-05T23:36:15.655Z,9.30
2022-10-05T23:38:43.629Z,9.30
2022-10-05T23:41:12.524Z,9.20
2022-10-05T23:43:40.547Z,9.20
2022-10-05T23:46:08.848Z,9.20
2022-10-05T23:48:39.974Z,9.10
2022-10-05T23:51:09.575Z,9.10
2022-10-05T23:53:37.575Z,9.00
2022-10-05T23:56:05.289Z,9.00
2022-10-05T23:58:32.777Z,9.00
